Historyczne dane pomiarowe

Dodano dane terminowe – wersja testowa.

Dane z okresu 1951-2019

Wersja bazy: 1.34 [2019-03-16, lista zmian], aktualizacja planowana na 2019-04-15

Dane meteo z obszaru Polski uzyskane na podstawie danych udostępnionych przez Instytut Meteorologii i Gospodarki Wodnej – Państwowy Instytut Badawczy.

 

Wybierz Datę:    

       

TemperaturaWilgotnośćZachmurzenieWiatrCiśnienieWidzialnośćZjawiska
 Data    tng td wb rh cc ccl cl cm ch dir g1 g2 mslp ppp      
1999-08-02 00:00:00 17.8--- 6.6 11.848wxwxwx3wx--1019.3 996.5 0.0---wx
1999-08-02 01:00:00 17.0--- 6.7 11.551wxwxwx3wx--1019.4 996.6----wx
1999-08-02 02:00:00 16.2--- 7.0 11.354wxwxwx3wx--1019.5 996.6----wx
1999-08-02 03:00:00 15.7--- 7.0 11.156wxwxwx4wx--1019.5 996.6----wx
1999-08-02 04:00:00 15.6--- 7.1 11.157wxwxwx4wx--1019.5 996.6----wx
1999-08-02 05:00:00 15.0--- 7.7 11.162wxwxwx4wx--1019.8 996.8----wx
1999-08-02 06:00:00 16.1--- 8.2 11.859wxwxwx3wx--1019.7 996.8 0.0---wx
1999-08-02 07:00:00 19.3--- 9.0 13.551wxwxwx1wx--1019.5 996.9----wx
1999-08-02 08:00:00 21.6--- 8.7 14.344wxwxwx2wx--1019.5 997.0----wx
1999-08-02 09:00:00 23.4--- 7.7 14.637wxwxwxwx3wx--1019.3 997.0----wx
1999-08-02 10:00:00 24.3--- 8.4 15.236wxwxwx2wx--1018.9 996.6----wx
1999-08-02 11:00:00 24.2--- 6.4 14.432wxwxwx3wx--1018.7 996.4----wx
1999-08-02 12:00:00 25.8--- 7.2 15.331wxwxwx4wx--1018.0 995.9 0.0---wx
1999-08-02 13:00:00 25.1--- 6.0 14.629wxwxwx3wx--1017.9 995.7----wx
1999-08-02 14:00:00 25.8--- 6.4 15.029wxwxwx3wx--1017.5 995.4----wx
1999-08-02 15:00:00 26.1--- 7.1 15.430wxwxwx3wx--1017.2 995.1----wx
1999-08-02 16:00:00 25.9--- 7.3 15.431wxwxwx2wx--1017.0 994.9----wx
1999-08-02 17:00:00 24.4--- 7.3 14.833wxwxwx2wx--1017.0 994.8----wx
1999-08-02 18:00:00 23.8--- 7.6 14.735wxwxwx1wx--1016.9 994.7 0.0---wx
1999-08-02 19:00:00 22.4--- 6.0 13.535wxwxwx1wx--1017.3 994.9----wx
1999-08-02 20:00:00 21.6--- 6.3 13.337wxwxwx1wx--1017.3 994.9----wx
1999-08-02 21:00:00 21.2--- 6.5 13.238wxwx2wx--1017.6 995.1----wx
1999-08-02 22:00:00 20.2--- 6.5 12.841wxwx2wx--1017.6 995.1----wx
1999-08-02 23:00:00 19.2--- 6.3 12.343wxwx1wx--1017.5 994.9----wx

 

Źródłem pochodzenia danych jest Instytut Meteorologii i Gospodarki Wodnej – Państwowy Instytut Badawczy. Dane Instytutu Meteorologii i Gospodarki Wodnej – Państwowego Instytutu Badawczego zostały przetworzone.

Dane źródłowe można odnaleźć na stronie https://dane.imgw.pl